createdAt,value
2019-03-29T00:00:22.869Z,59.60
2019-03-29T00:05:25.370Z,64.45
2019-03-29T00:10:27.171Z,61.05
2019-03-29T00:15:29.230Z,61.33
2019-03-29T00:20:30.771Z,64.35
2019-03-29T00:25:33.063Z,63.40
2019-03-29T00:30:34.701Z,70.00
2019-03-29T00:35:36.019Z,66.55
2019-03-29T00:40:37.511Z,59.50
2019-03-29T00:45:38.832Z,68.12
2019-03-29T00:50:40.318Z,63.28
2019-03-29T00:55:41.730Z,57.83
2019-03-29T01:00:43.077Z,64.77
2019-03-29T01:05:44.706Z,51.92
2019-03-29T01:10:48.904Z,59.55
2019-03-29T01:15:50.615Z,67.35
2019-03-29T01:20:52.184Z,66.90
2019-03-29T01:25:53.850Z,64.17
2019-03-29T01:30:55.314Z,58.02
2019-03-29T01:35:56.777Z,57.58
2019-03-29T01:41:01.009Z,57.55
2019-03-29T01:46:02.654Z,61.75
2019-03-29T01:51:04.335Z,64.25
2019-03-29T01:56:05.999Z,64.50
2019-03-29T02:01:07.408Z,67.00
2019-03-29T02:06:08.726Z,64.20
2019-03-29T02:11:10.260Z,65.20
2019-03-29T02:16:11.803Z,56.88
2019-03-29T02:21:13.506Z,55.33
2019-03-29T02:26:14.971Z,61.70
2019-03-29T02:31:16.485Z,62.43
2019-03-29T02:36:18.026Z,60.73
2019-03-29T02:41:21.336Z,57.93
2019-03-29T02:46:22.806Z,54.27
2019-03-29T02:51:24.164Z,56.77
2019-03-29T02:56:25.656Z,57.53
2019-03-29T03:01:27.227Z,58.65
2019-03-29T03:06:28.772Z,54.73
2019-03-29T03:11:30.643Z,51.30
2019-03-29T03:16:32.147Z,52.03
2019-03-29T03:21:33.466Z,54.83
2019-03-29T03:26:35.044Z,55.38
2019-03-29T03:31:36.735Z,55.50
2019-03-29T03:36:39.019Z,61.63
2019-03-29T03:41:42.385Z,51.75
2019-03-29T03:46:43.798Z,52.20
2019-03-29T03:51:48.645Z,49.23
2019-03-29T03:56:52.193Z,56.55
2019-03-29T04:01:53.683Z,49.13
2019-03-29T04:06:55.376Z,57.60
2019-03-29T04:11:56.936Z,56.30
2019-03-29T04:17:00.025Z,56.63
2019-03-29T04:22:01.345Z,50.55
2019-03-29T04:27:03.951Z,53.45
2019-03-29T04:32:05.734Z,58.23
2019-03-29T04:37:07.172Z,52.70
2019-03-29T04:42:08.785Z,54.13
2019-03-29T04:47:10.345Z,48.98
2019-03-29T04:52:11.989Z,56.45
2019-03-29T04:57:13.519Z,54.27
2019-03-29T05:02:14.823Z,45.80
2019-03-29T05:07:16.448Z,54.40
2019-03-29T05:12:17.763Z,50.83
2019-03-29T05:17:21.546Z,53.48
2019-03-29T05:22:22.951Z,54.65
2019-03-29T05:27:25.890Z,55.73
2019-03-29T05:32:27.316Z,53.78
2019-03-29T05:37:29.084Z,53.90
2019-03-29T05:42:30.507Z,51.13
2019-03-29T05:47:33.604Z,50.15
2019-03-29T05:52:35.151Z,43.78
2019-03-29T05:57:36.620Z,59.77
2019-03-29T06:02:38.150Z,61.90
2019-03-29T06:07:39.812Z,61.73
2019-03-29T06:12:43.250Z,59.67
2019-03-29T06:17:49.018Z,61.65
2019-03-29T06:22:49.519Z,57.95
2019-03-29T06:27:50.884Z,74.35
2019-03-29T06:32:52.216Z,76.40
2019-03-29T06:37:54.369Z,68.30
2019-03-29T06:42:57.676Z,76.37
2019-03-29T06:47:59.323Z,84.92
2019-03-29T06:53:01.031Z,87.27
2019-03-29T06:58:02.808Z,84.55
2019-03-29T07:03:04.715Z,87.00
2019-03-29T07:08:06.265Z,89.15
2019-03-29T07:13:07.707Z,91.25
2019-03-29T07:18:17.188Z,92.65
2019-03-29T07:23:18.943Z,104.20
2019-03-29T07:28:20.433Z,103.35
2019-03-29T07:33:21.987Z,95.55
2019-03-29T07:38:23.957Z,90.25
2019-03-29T07:43:25.568Z,91.90
2019-03-29T07:48:26.985Z,90.25
2019-03-29T07:53:28.686Z,92.15
2019-03-29T07:58:30.131Z,82.60
2019-03-29T08:03:32.031Z,85.17
2019-03-29T08:08:51.974Z,72.60
2019-03-29T08:13:53.365Z,73.37
2019-03-29T08:18:54.883Z,70.25
2019-03-29T08:23:56.350Z,71.17
2019-03-29T08:28:57.734Z,68.52
2019-03-29T08:34:01.930Z,68.15
2019-03-29T08:39:06.007Z,68.50
2019-03-29T08:44:07.361Z,72.30
2019-03-29T08:49:08.863Z,70.17
2019-03-29T08:54:10.406Z,73.15
2019-03-29T08:59:11.975Z,71.20
2019-03-29T09:04:13.512Z,74.05
2019-03-29T09:09:15.564Z,69.92
2019-03-29T09:14:17.197Z,63.68
2019-03-29T09:19:18.491Z,61.45
2019-03-29T09:24:22.396Z,61.35
2019-03-29T09:29:37.056Z,59.20
2019-03-29T09:34:53.797Z,61.80
2019-03-29T09:39:56.139Z,62.23
2019-03-29T09:44:57.451Z,65.28
2019-03-29T09:49:59.091Z,59.08
2019-03-29T09:55:00.602Z,56.02
2019-03-29T10:00:18.137Z,57.70
2019-03-29T10:05:10.500Z,59.83
2019-03-29T10:10:12.345Z,53.52
2019-03-29T10:15:13.859Z,53.70
2019-03-29T10:20:31.580Z,49.90
2019-03-29T10:25:41.851Z,49.05
2019-03-29T10:31:01.135Z,53.00
2019-03-29T10:36:23.692Z,47.75
2019-03-29T10:41:38.090Z,46.70
2019-03-29T10:46:39.688Z,41.50
2019-03-29T10:51:41.892Z,45.78
2019-03-29T10:56:43.256Z,44.23
2019-03-29T11:01:44.827Z,40.50
2019-03-29T11:06:46.527Z,42.05
2019-03-29T11:11:48.019Z,41.98
2019-03-29T11:16:49.389Z,38.17
2019-03-29T11:21:51.240Z,38.48
2019-03-29T11:26:52.668Z,33.58
2019-03-29T11:31:57.474Z,32.50
2019-03-29T11:36:59.290Z,30.10
2019-03-29T11:42:03.314Z,34.98
2019-03-29T11:47:04.753Z,32.98
2019-03-29T11:52:06.251Z,30.12
2019-03-29T11:57:07.679Z,27.58
2019-03-29T12:02:11.370Z,27.58
2019-03-29T12:07:13.368Z,28.70
2019-03-29T12:12:14.845Z,24.75
2019-03-29T12:17:16.191Z,26.02
2019-03-29T12:22:18.032Z,28.67
2019-03-29T12:27:19.455Z,27.55
2019-03-29T12:32:21.099Z,26.50
2019-03-29T12:37:22.528Z,29.63
2019-03-29T12:42:24.066Z,26.80
2019-03-29T12:47:25.780Z,29.20
2019-03-29T12:52:27.419Z,26.70
2019-03-29T12:57:29.075Z,28.52
2019-03-29T13:02:30.475Z,28.23
2019-03-29T13:07:32.199Z,28.35
2019-03-29T13:12:33.869Z,29.18
2019-03-29T13:17:35.461Z,24.05
2019-03-29T13:22:38.796Z,26.90
2019-03-29T13:27:40.272Z,24.15
2019-03-29T13:32:41.779Z,24.37
2019-03-29T13:37:43.298Z,26.07
2019-03-29T13:42:45.511Z,28.17
2019-03-29T13:47:48.445Z,26.00
2019-03-29T13:52:49.783Z,27.82
2019-03-29T13:57:51.753Z,25.12
2019-03-29T14:02:53.172Z,29.07
2019-03-29T14:07:54.696Z,29.12
2019-03-29T14:12:56.361Z,31.77
2019-03-29T14:17:57.874Z,29.45
2019-03-29T14:23:02.781Z,31.95
2019-03-29T14:28:04.257Z,30.00
2019-03-29T14:33:05.750Z,28.47
2019-03-29T14:38:07.123Z,27.45
2019-03-29T14:43:08.551Z,29.20
2019-03-29T14:48:10.145Z,27.95
2019-03-29T14:53:11.771Z,27.98
2019-03-29T14:58:13.156Z,26.20
2019-03-29T15:03:14.710Z,27.55
2019-03-29T15:08:16.251Z,26.45
2019-03-29T15:13:18.114Z,27.37
2019-03-29T15:18:19.524Z,26.52
2019-03-29T15:23:21.077Z,29.00
2019-03-29T15:28:22.722Z,28.92
2019-03-29T15:33:24.211Z,28.20
2019-03-29T15:38:25.515Z,27.32
2019-03-29T15:43:26.869Z,31.02
2019-03-29T15:48:28.533Z,30.27
2019-03-29T15:53:30.012Z,31.37
2019-03-29T15:58:31.516Z,32.17
2019-03-29T16:03:33.003Z,32.25
2019-03-29T16:08:34.467Z,27.98
2019-03-29T16:13:35.863Z,30.80
2019-03-29T16:18:37.257Z,28.75
2019-03-29T16:23:38.571Z,25.02
2019-03-29T16:28:39.900Z,23.10
2019-03-29T16:33:41.247Z,26.07
2019-03-29T16:38:42.779Z,21.27
2019-03-29T16:43:44.165Z,24.55
2019-03-29T16:48:46.072Z,20.45
2019-03-29T16:53:47.409Z,22.65
2019-03-29T16:58:48.733Z,24.98
2019-03-29T17:03:50.168Z,27.85
2019-03-29T17:08:51.612Z,26.10
2019-03-29T17:13:53.307Z,25.57
2019-03-29T17:18:54.774Z,25.60
2019-03-29T17:23:56.177Z,27.37
2019-03-29T17:28:57.608Z,25.48
2019-03-29T17:33:59.230Z,23.85
2019-03-29T17:39:00.521Z,24.60
2019-03-29T17:44:05.831Z,27.93
2019-03-29T17:49:07.408Z,26.00
2019-03-29T17:54:08.880Z,23.42
2019-03-29T17:59:10.929Z,27.42
2019-03-29T18:04:12.494Z,26.60
2019-03-29T18:09:14.166Z,23.73
2019-03-29T18:14:15.644Z,25.85
2019-03-29T18:19:17.397Z,27.87
2019-03-29T18:24:19.292Z,28.65
2019-03-29T18:29:21.006Z,31.37
2019-03-29T18:34:24.840Z,32.93
2019-03-29T18:39:26.850Z,31.48
2019-03-29T18:44:28.318Z,33.90
2019-03-29T18:49:49.640Z,31.75
2019-03-29T18:54:51.162Z,46.80
2019-03-29T18:59:52.593Z,43.58
2019-03-29T19:04:54.099Z,43.90
2019-03-29T19:09:55.848Z,52.08
2019-03-29T19:14:57.383Z,40.05
2019-03-29T19:19:59.117Z,41.33
2019-03-29T19:25:00.631Z,71.15
2019-03-29T19:30:06.829Z,64.82
2019-03-29T19:35:09.136Z,49.48
2019-03-29T19:40:11.137Z,44.70
2019-03-29T19:45:14.588Z,62.83
2019-03-29T19:50:16.872Z,87.78
2019-03-29T19:55:18.390Z,82.78
2019-03-29T20:00:28.857Z,88.62
2019-03-29T20:05:30.360Z,85.40
2019-03-29T20:10:31.939Z,76.77
2019-03-29T20:15:36.182Z,72.00
2019-03-29T20:20:37.870Z,63.63
2019-03-29T20:25:39.331Z,65.97
2019-03-29T20:30:41.373Z,57.43
2019-03-29T20:35:42.887Z,52.75
2019-03-29T20:40:45.160Z,41.90
2019-03-29T20:45:46.678Z,41.80
2019-03-29T20:50:48.067Z,38.10
2019-03-29T20:55:49.682Z,38.95
2019-03-29T21:00:51.222Z,38.45
2019-03-29T21:05:52.769Z,41.33
2019-03-29T21:10:56.238Z,41.02
2019-03-29T21:15:58.527Z,42.08
2019-03-29T21:20:59.862Z,40.45
2019-03-29T21:26:03.930Z,41.33
2019-03-29T21:31:05.343Z,40.05
2019-03-29T21:36:07.205Z,43.17
2019-03-29T21:41:08.692Z,43.70
2019-03-29T21:46:10.186Z,41.50
2019-03-29T21:51:12.688Z,41.35
2019-03-29T21:56:16.042Z,50.15
2019-03-29T22:01:19.412Z,59.13
2019-03-29T22:06:21.026Z,49.00
2019-03-29T22:11:25.088Z,46.90
2019-03-29T22:16:26.919Z,47.95
2019-03-29T22:21:28.842Z,44.03
2019-03-29T22:26:30.672Z,47.25
2019-03-29T22:31:32.563Z,43.02
2019-03-29T22:36:34.074Z,40.80
2019-03-29T22:41:35.955Z,41.95
2019-03-29T22:46:39.446Z,45.10
2019-03-29T22:51:41.118Z,38.40
2019-03-29T22:56:42.918Z,42.45
2019-03-29T23:01:47.678Z,40.33
2019-03-29T23:06:49.106Z,39.38
2019-03-29T23:11:50.543Z,40.48
2019-03-29T23:16:52.069Z,37.05
2019-03-29T23:21:53.427Z,34.80
2019-03-29T23:26:55.003Z,38.00
2019-03-29T23:31:56.480Z,35.70
2019-03-29T23:37:16.616Z,36.60
2019-03-29T23:42:17.926Z,38.53
2019-03-29T23:47:20.625Z,36.03
2019-03-29T23:52:22.157Z,33.73
2019-03-29T23:57:23.639Z,32.20
